sensor_id;sensor_type;location;lat;lon;timestamp;P1;durP1;ratioP1;P2;durP2;ratioP2
38113;SDS011;23926;53.222;6.354;2022-10-16T00:00:36;7.82;;;2.28;;
38113;SDS011;23926;53.222;6.354;2022-10-16T00:03:02;7.60;;;2.47;;
38113;SDS011;23926;53.222;6.354;2022-10-16T00:05:29;12.25;;;3.03;;
38113;SDS011;23926;53.222;6.354;2022-10-16T00:07:54;9.45;;;2.53;;
38113;SDS011;23926;53.222;6.354;2022-10-16T00:10:20;5.35;;;2.00;;
38113;SDS011;23926;53.222;6.354;2022-10-16T00:12:46;4.18;;;2.10;;
38113;SDS011;23926;53.222;6.354;2022-10-16T00:15:11;6.68;;;1.92;;
38113;SDS011;23926;53.222;6.354;2022-10-16T00:17:37;9.35;;;2.70;;
38113;SDS011;23926;53.222;6.354;2022-10-16T00:20:02;7.22;;;2.30;;
38113;SDS011;23926;53.222;6.354;2022-10-16T00:22:28;10.27;;;2.97;;
38113;SDS011;23926;53.222;6.354;2022-10-16T00:24:53;6.93;;;2.08;;
38113;SDS011;23926;53.222;6.354;2022-10-16T00:27:18;9.20;;;2.38;;
38113;SDS011;23926;53.222;6.354;2022-10-16T00:29:44;7.10;;;2.20;;
38113;SDS011;23926;53.222;6.354;2022-10-16T00:32:09;9.35;;;2.10;;
38113;SDS011;23926;53.222;6.354;2022-10-16T00:34:34;5.28;;;1.90;;
38113;SDS011;23926;53.222;6.354;2022-10-16T00:37:00;5.57;;;1.90;;
38113;SDS011;23926;53.222;6.354;2022-10-16T00:39:25;8.15;;;2.10;;
38113;SDS011;23926;53.222;6.354;2022-10-16T00:41:51;7.82;;;2.55;;
38113;SDS011;23926;53.222;6.354;2022-10-16T00:47:08;5.90;;;2.45;;
38113;SDS011;23926;53.222;6.354;2022-10-16T00:49:35;4.57;;;1.80;;
38113;SDS011;23926;53.222;6.354;2022-10-16T00:52:01;5.97;;;2.25;;
38113;SDS011;23926;53.222;6.354;2022-10-16T00:54:27;6.15;;;1.95;;
38113;SDS011;23926;53.222;6.354;2022-10-16T00:56:56;7.82;;;2.15;;
38113;SDS011;23926;53.222;6.354;2022-10-16T00:59:35;6.18;;;2.22;;
38113;SDS011;23926;53.222;6.354;2022-10-16T01:02:05;7.30;;;2.15;;
38113;SDS011;23926;53.222;6.354;2022-10-16T01:04:51;6.82;;;1.88;;
38113;SDS011;23926;53.222;6.354;2022-10-16T01:09:57;5.28;;;2.15;;
38113;SDS011;23926;53.222;6.354;2022-10-16T01:12:47;6.15;;;1.98;;
38113;SDS011;23926;53.222;6.354;2022-10-16T01:15:27;3.72;;;2.03;;
38113;SDS011;23926;53.222;6.354;2022-10-16T01:20:49;8.40;;;2.08;;
38113;SDS011;23926;53.222;6.354;2022-10-16T01:28:32;6.70;;;1.95;;
38113;SDS011;23926;53.222;6.354;2022-10-16T01:31:02;10.40;;;1.98;;
38113;SDS011;23926;53.222;6.354;2022-10-16T01:33:30;4.97;;;2.03;;
38113;SDS011;23926;53.222;6.354;2022-10-16T01:36:12;7.10;;;1.77;;
38113;SDS011;23926;53.222;6.354;2022-10-16T01:38:40;4.25;;;2.38;;
38113;SDS011;23926;53.222;6.354;2022-10-16T01:41:13;3.30;;;1.70;;
38113;SDS011;23926;53.222;6.354;2022-10-16T01:43:45;10.07;;;2.65;;
38113;SDS011;23926;53.222;6.354;2022-10-16T01:46:16;7.38;;;2.50;;
38113;SDS011;23926;53.222;6.354;2022-10-16T01:48:43;4.15;;;2.03;;
38113;SDS011;23926;53.222;6.354;2022-10-16T01:51:11;5.55;;;2.13;;
38113;SDS011;23926;53.222;6.354;2022-10-16T01:53:41;5.78;;;1.92;;
38113;SDS011;23926;53.222;6.354;2022-10-16T01:56:11;4.75;;;1.98;;
38113;SDS011;23926;53.222;6.354;2022-10-16T01:58:40;8.27;;;2.42;;
38113;SDS011;23926;53.222;6.354;2022-10-16T02:01:10;7.05;;;2.60;;
38113;SDS011;23926;53.222;6.354;2022-10-16T02:03:38;5.47;;;1.80;;
38113;SDS011;23926;53.222;6.354;2022-10-16T02:06:06;10.55;;;2.55;;
38113;SDS011;23926;53.222;6.354;2022-10-16T02:08:32;8.20;;;2.03;;
38113;SDS011;23926;53.222;6.354;2022-10-16T02:10:59;3.47;;;2.10;;
38113;SDS011;23926;53.222;6.354;2022-10-16T02:13:28;5.95;;;2.00;;
38113;SDS011;23926;53.222;6.354;2022-10-16T02:15:57;3.75;;;1.90;;
38113;SDS011;23926;53.222;6.354;2022-10-16T02:18:23;6.93;;;2.45;;
38113;SDS011;23926;53.222;6.354;2022-10-16T02:23:46;3.88;;;2.33;;
38113;SDS011;23926;53.222;6.354;2022-10-16T02:29:45;4.70;;;2.15;;
38113;SDS011;23926;53.222;6.354;2022-10-16T02:32:19;7.30;;;2.10;;
38113;SDS011;23926;53.222;6.354;2022-10-16T02:34:48;5.30;;;2.28;;
38113;SDS011;23926;53.222;6.354;2022-10-16T02:37:15;3.88;;;2.05;;
38113;SDS011;23926;53.222;6.354;2022-10-16T02:39:42;4.00;;;2.20;;
38113;SDS011;23926;53.222;6.354;2022-10-16T02:42:11;3.20;;;1.92;;
38113;SDS011;23926;53.222;6.354;2022-10-16T02:44:38;5.95;;;2.20;;
38113;SDS011;23926;53.222;6.354;2022-10-16T02:47:03;5.03;;;2.30;;
38113;SDS011;23926;53.222;6.354;2022-10-16T02:49:28;5.78;;;2.15;;
38113;SDS011;23926;53.222;6.354;2022-10-16T02:51:54;8.10;;;2.10;;
38113;SDS011;23926;53.222;6.354;2022-10-16T02:54:19;3.08;;;2.15;;
38113;SDS011;23926;53.222;6.354;2022-10-16T02:56:45;5.63;;;2.53;;
38113;SDS011;23926;53.222;6.354;2022-10-16T02:59:10;6.32;;;2.40;;
38113;SDS011;23926;53.222;6.354;2022-10-16T03:01:35;5.55;;;2.38;;
38113;SDS011;23926;53.222;6.354;2022-10-16T03:04:01;2.70;;;2.10;;
38113;SDS011;23926;53.222;6.354;2022-10-16T03:06:27;3.88;;;2.00;;
38113;SDS011;23926;53.222;6.354;2022-10-16T03:08:52;7.85;;;2.33;;
38113;SDS011;23926;53.222;6.354;2022-10-16T03:11:17;4.80;;;2.30;;
38113;SDS011;23926;53.222;6.354;2022-10-16T03:13:43;5.60;;;2.42;;
38113;SDS011;23926;53.222;6.354;2022-10-16T03:16:08;4.57;;;2.20;;
38113;SDS011;23926;53.222;6.354;2022-10-16T03:18:33;7.93;;;2.40;;
38113;SDS011;23926;53.222;6.354;2022-10-16T03:20:59;9.32;;;2.53;;
38113;SDS011;23926;53.222;6.354;2022-10-16T03:23:24;8.30;;;2.50;;
38113;SDS011;23926;53.222;6.354;2022-10-16T03:25:50;4.28;;;2.10;;
38113;SDS011;23926;53.222;6.354;2022-10-16T03:28:15;5.60;;;2.30;;
38113;SDS011;23926;53.222;6.354;2022-10-16T03:30:40;8.18;;;2.40;;
38113;SDS011;23926;53.222;6.354;2022-10-16T03:33:06;3.90;;;2.35;;
38113;SDS011;23926;53.222;6.354;2022-10-16T03:35:32;6.45;;;2.10;;
38113;SDS011;23926;53.222;6.354;2022-10-16T03:37:58;3.90;;;2.00;;
38113;SDS011;23926;53.222;6.354;2022-10-16T03:40:23;5.60;;;2.53;;
38113;SDS011;23926;53.222;6.354;2022-10-16T03:42:49;5.80;;;2.75;;
38113;SDS011;23926;53.222;6.354;2022-10-16T03:45:14;6.38;;;2.20;;
38113;SDS011;23926;53.222;6.354;2022-10-16T03:47:39;3.97;;;2.33;;
38113;SDS011;23926;53.222;6.354;2022-10-16T03:50:06;7.32;;;2.83;;
38113;SDS011;23926;53.222;6.354;2022-10-16T03:52:32;4.70;;;2.53;;
38113;SDS011;23926;53.222;6.354;2022-10-16T03:54:57;3.78;;;2.55;;
38113;SDS011;23926;53.222;6.354;2022-10-16T03:57:23;4.32;;;2.17;;
38113;SDS011;23926;53.222;6.354;2022-10-16T03:59:48;3.78;;;2.22;;
38113;SDS011;23926;53.222;6.354;2022-10-16T04:02:14;5.30;;;2.22;;
38113;SDS011;23926;53.222;6.354;2022-10-16T04:04:39;5.20;;;2.08;;
38113;SDS011;23926;53.222;6.354;2022-10-16T04:07:05;8.27;;;2.47;;
38113;SDS011;23926;53.222;6.354;2022-10-16T04:09:30;7.68;;;2.25;;
38113;SDS011;23926;53.222;6.354;2022-10-16T04:11:55;11.35;;;2.40;;
38113;SDS011;23926;53.222;6.354;2022-10-16T04:14:21;5.00;;;2.30;;
38113;SDS011;23926;53.222;6.354;2022-10-16T04:16:46;2.55;;;2.13;;
38113;SDS011;23926;53.222;6.354;2022-10-16T04:19:12;2.65;;;1.92;;
38113;SDS011;23926;53.222;6.354;2022-10-16T04:21:37;4.25;;;2.13;;
38113;SDS011;23926;53.222;6.354;2022-10-16T04:24:03;4.35;;;2.00;;
38113;SDS011;23926;53.222;6.354;2022-10-16T04:26:29;6.05;;;2.20;;
38113;SDS011;23926;53.222;6.354;2022-10-16T04:28:54;7.28;;;2.40;;
38113;SDS011;23926;53.222;6.354;2022-10-16T04:31:20;6.10;;;2.78;;
38113;SDS011;23926;53.222;6.354;2022-10-16T04:33:45;4.90;;;2.65;;
38113;SDS011;23926;53.222;6.354;2022-10-16T04:36:11;4.57;;;2.38;;
38113;SDS011;23926;53.222;6.354;2022-10-16T04:38:37;4.60;;;2.33;;
38113;SDS011;23926;53.222;6.354;2022-10-16T04:41:04;8.43;;;2.35;;
38113;SDS011;23926;53.222;6.354;2022-10-16T04:43:30;4.05;;;2.30;;
38113;SDS011;23926;53.222;6.354;2022-10-16T04:45:55;4.13;;;2.22;;
38113;SDS011;23926;53.222;6.354;2022-10-16T04:48:21;3.88;;;2.30;;
38113;SDS011;23926;53.222;6.354;2022-10-16T04:50:47;5.82;;;2.20;;
38113;SDS011;23926;53.222;6.354;2022-10-16T04:53:12;4.90;;;2.00;;
38113;SDS011;23926;53.222;6.354;2022-10-16T04:55:38;5.55;;;2.70;;
38113;SDS011;23926;53.222;6.354;2022-10-16T04:58:04;3.22;;;1.85;;
38113;SDS011;23926;53.222;6.354;2022-10-16T05:00:30;4.63;;;2.30;;
38113;SDS011;23926;53.222;6.354;2022-10-16T05:02:55;3.35;;;2.20;;
38113;SDS011;23926;53.222;6.354;2022-10-16T05:05:21;4.25;;;2.10;;
38113;SDS011;23926;53.222;6.354;2022-10-16T05:07:47;7.95;;;2.30;;
38113;SDS011;23926;53.222;6.354;2022-10-16T05:10:13;5.07;;;1.92;;
38113;SDS011;23926;53.222;6.354;2022-10-16T05:12:38;6.30;;;2.30;;
38113;SDS011;23926;53.222;6.354;2022-10-16T05:15:04;4.35;;;2.25;;
38113;SDS011;23926;53.222;6.354;2022-10-16T05:17:30;4.53;;;2.20;;
38113;SDS011;23926;53.222;6.354;2022-10-16T05:19:55;6.38;;;2.40;;
38113;SDS011;23926;53.222;6.354;2022-10-16T05:22:21;4.50;;;2.42;;
38113;SDS011;23926;53.222;6.354;2022-10-16T05:24:46;9.15;;;2.50;;
38113;SDS011;23926;53.222;6.354;2022-10-16T05:27:12;7.22;;;2.78;;
38113;SDS011;23926;53.222;6.354;2022-10-16T05:29:44;6.10;;;2.58;;
38113;SDS011;23926;53.222;6.354;2022-10-16T05:32:16;2.42;;;2.20;;
38113;SDS011;23926;53.222;6.354;2022-10-16T05:34:43;6.32;;;2.72;;
38113;SDS011;23926;53.222;6.354;2022-10-16T05:37:09;5.55;;;3.10;;
38113;SDS011;23926;53.222;6.354;2022-10-16T05:39:36;6.85;;;2.75;;
38113;SDS011;23926;53.222;6.354;2022-10-16T05:42:02;4.90;;;2.80;;
38113;SDS011;23926;53.222;6.354;2022-10-16T05:44:28;9.40;;;3.00;;
38113;SDS011;23926;53.222;6.354;2022-10-16T05:46:53;6.45;;;3.00;;
38113;SDS011;23926;53.222;6.354;2022-10-16T05:49:19;5.93;;;3.10;;
38113;SDS011;23926;53.222;6.354;2022-10-16T05:51:44;4.03;;;2.60;;
38113;SDS011;23926;53.222;6.354;2022-10-16T05:54:10;7.05;;;3.00;;
38113;SDS011;23926;53.222;6.354;2022-10-16T05:56:35;5.22;;;2.70;;
38113;SDS011;23926;53.222;6.354;2022-10-16T05:59:00;5.63;;;2.20;;
38113;SDS011;23926;53.222;6.354;2022-10-16T06:01:27;9.45;;;2.90;;
38113;SDS011;23926;53.222;6.354;2022-10-16T06:03:53;6.30;;;2.80;;
38113;SDS011;23926;53.222;6.354;2022-10-16T06:06:22;7.55;;;3.47;;
38113;SDS011;23926;53.222;6.354;2022-10-16T06:08:50;6.93;;;3.22;;
38113;SDS011;23926;53.222;6.354;2022-10-16T06:11:21;5.90;;;2.97;;
38113;SDS011;23926;53.222;6.354;2022-10-16T06:13:52;6.10;;;3.00;;
38113;SDS011;23926;53.222;6.354;2022-10-16T06:16:18;4.60;;;2.72;;
38113;SDS011;23926;53.222;6.354;2022-10-16T06:18:44;8.57;;;3.22;;
38113;SDS011;23926;53.222;6.354;2022-10-16T06:21:11;4.65;;;2.90;;
38113;SDS011;23926;53.222;6.354;2022-10-16T06:23:38;5.40;;;3.20;;
38113;SDS011;23926;53.222;6.354;2022-10-16T06:26:08;9.15;;;3.17;;
38113;SDS011;23926;53.222;6.354;2022-10-16T06:28:34;7.28;;;3.60;;
38113;SDS011;23926;53.222;6.354;2022-10-16T06:31:00;6.57;;;3.47;;
38113;SDS011;23926;53.222;6.354;2022-10-16T06:33:26;6.85;;;3.45;;
38113;SDS011;23926;53.222;6.354;2022-10-16T06:35:52;5.85;;;2.95;;
38113;SDS011;23926;53.222;6.354;2022-10-16T06:38:17;6.00;;;3.22;;
38113;SDS011;23926;53.222;6.354;2022-10-16T06:40:43;6.00;;;3.08;;
38113;SDS011;23926;53.222;6.354;2022-10-16T06:43:08;7.18;;;3.58;;
38113;SDS011;23926;53.222;6.354;2022-10-16T06:45:34;3.75;;;2.88;;
38113;SDS011;23926;53.222;6.354;2022-10-16T06:47:59;11.45;;;3.67;;
38113;SDS011;23926;53.222;6.354;2022-10-16T06:50:24;6.05;;;2.85;;
38113;SDS011;23926;53.222;6.354;2022-10-16T06:52:50;11.88;;;3.50;;
38113;SDS011;23926;53.222;6.354;2022-10-16T06:55:15;6.18;;;2.97;;
38113;SDS011;23926;53.222;6.354;2022-10-16T06:57:42;13.32;;;3.53;;
38113;SDS011;23926;53.222;6.354;2022-10-16T07:00:08;5.97;;;2.72;;
38113;SDS011;23926;53.222;6.354;2022-10-16T07:02:33;8.30;;;3.10;;
38113;SDS011;23926;53.222;6.354;2022-10-16T07:04:59;7.03;;;3.47;;
38113;SDS011;23926;53.222;6.354;2022-10-16T07:07:24;6.85;;;3.60;;
38113;SDS011;23926;53.222;6.354;2022-10-16T07:09:51;9.43;;;3.83;;
38113;SDS011;23926;53.222;6.354;2022-10-16T07:12:17;8.05;;;3.72;;
38113;SDS011;23926;53.222;6.354;2022-10-16T07:14:42;7.90;;;3.25;;
38113;SDS011;23926;53.222;6.354;2022-10-16T07:17:08;9.07;;;3.10;;
38113;SDS011;23926;53.222;6.354;2022-10-16T07:19:33;6.38;;;3.15;;
38113;SDS011;23926;53.222;6.354;2022-10-16T07:21:58;6.43;;;2.85;;
38113;SDS011;23926;53.222;6.354;2022-10-16T07:24:24;6.38;;;3.22;;
38113;SDS011;23926;53.222;6.354;2022-10-16T07:26:49;4.88;;;2.65;;
38113;SDS011;23926;53.222;6.354;2022-10-16T07:29:16;11.07;;;2.90;;
38113;SDS011;23926;53.222;6.354;2022-10-16T07:31:44;5.72;;;2.78;;
38113;SDS011;23926;53.222;6.354;2022-10-16T07:34:11;4.95;;;2.55;;
38113;SDS011;23926;53.222;6.354;2022-10-16T07:36:37;7.25;;;3.30;;
38113;SDS011;23926;53.222;6.354;2022-10-16T07:39:03;6.25;;;2.92;;
38113;SDS011;23926;53.222;6.354;2022-10-16T07:41:29;9.20;;;3.15;;
38113;SDS011;23926;53.222;6.354;2022-10-16T07:43:55;15.55;;;3.58;;
38113;SDS011;23926;53.222;6.354;2022-10-16T07:46:22;9.80;;;3.55;;
38113;SDS011;23926;53.222;6.354;2022-10-16T07:48:48;15.93;;;3.58;;
38113;SDS011;23926;53.222;6.354;2022-10-16T07:51:18;10.25;;;3.67;;
38113;SDS011;23926;53.222;6.354;2022-10-16T07:53:45;5.80;;;2.45;;
38113;SDS011;23926;53.222;6.354;2022-10-16T07:56:11;6.13;;;2.50;;
38113;SDS011;23926;53.222;6.354;2022-10-16T07:58:37;5.55;;;2.40;;
38113;SDS011;23926;53.222;6.354;2022-10-16T08:01:04;6.88;;;2.95;;
38113;SDS011;23926;53.222;6.354;2022-10-16T08:03:30;8.57;;;3.55;;
38113;SDS011;23926;53.222;6.354;2022-10-16T08:05:56;4.55;;;2.50;;
38113;SDS011;23926;53.222;6.354;2022-10-16T08:08:22;4.30;;;2.92;;
38113;SDS011;23926;53.222;6.354;2022-10-16T08:10:47;7.28;;;3.30;;
38113;SDS011;23926;53.222;6.354;2022-10-16T08:13:13;7.20;;;3.10;;
38113;SDS011;23926;53.222;6.354;2022-10-16T08:15:40;7.15;;;3.47;;
38113;SDS011;23926;53.222;6.354;2022-10-16T08:18:06;7.68;;;3.55;;
38113;SDS011;23926;53.222;6.354;2022-10-16T08:20:32;7.43;;;3.20;;
38113;SDS011;23926;53.222;6.354;2022-10-16T08:23:01;5.50;;;2.67;;
38113;SDS011;23926;53.222;6.354;2022-10-16T08:25:27;6.80;;;2.80;;
38113;SDS011;23926;53.222;6.354;2022-10-16T08:27:53;5.85;;;3.05;;
38113;SDS011;23926;53.222;6.354;2022-10-16T08:30:19;6.43;;;2.85;;
38113;SDS011;23926;53.222;6.354;2022-10-16T08:32:45;7.43;;;3.00;;
38113;SDS011;23926;53.222;6.354;2022-10-16T08:35:11;6.05;;;2.90;;
38113;SDS011;23926;53.222;6.354;2022-10-16T08:37:37;7.90;;;2.65;;
38113;SDS011;23926;53.222;6.354;2022-10-16T08:40:04;6.10;;;2.95;;
38113;SDS011;23926;53.222;6.354;2022-10-16T08:42:38;9.05;;;3.97;;
38113;SDS011;23926;53.222;6.354;2022-10-16T08:50:30;6.53;;;2.60;;
38113;SDS011;23926;53.222;6.354;2022-10-16T08:52:57;11.07;;;2.70;;
38113;SDS011;23926;53.222;6.354;2022-10-16T08:58:12;8.48;;;2.75;;
38113;SDS011;23926;53.222;6.354;2022-10-16T09:00:42;9.70;;;2.60;;
38113;SDS011;23926;53.222;6.354;2022-10-16T09:06:10;7.25;;;2.70;;
38113;SDS011;23926;53.222;6.354;2022-10-16T09:11:34;6.20;;;2.53;;
38113;SDS011;23926;53.222;6.354;2022-10-16T09:17:25;7.70;;;2.35;;
38113;SDS011;23926;53.222;6.354;2022-10-16T09:19:58;10.70;;;2.55;;
38113;SDS011;23926;53.222;6.354;2022-10-16T09:22:33;13.35;;;3.03;;
38113;SDS011;23926;53.222;6.354;2022-10-16T09:25:09;10.63;;;2.50;;
38113;SDS011;23926;53.222;6.354;2022-10-16T09:27:37;11.70;;;2.70;;
38113;SDS011;23926;53.222;6.354;2022-10-16T09:30:19;6.18;;;2.28;;
38113;SDS011;23926;53.222;6.354;2022-10-16T09:32:47;11.27;;;2.63;;
38113;SDS011;23926;53.222;6.354;2022-10-16T09:35:18;11.93;;;2.70;;
38113;SDS011;23926;53.222;6.354;2022-10-16T09:37:47;10.95;;;2.53;;
38113;SDS011;23926;53.222;6.354;2022-10-16T09:40:25;10.77;;;2.60;;
38113;SDS011;23926;53.222;6.354;2022-10-16T09:48:21;10.68;;;2.28;;
38113;SDS011;23926;53.222;6.354;2022-10-16T09:50:57;14.35;;;2.63;;
38113;SDS011;23926;53.222;6.354;2022-10-16T09:53:23;14.18;;;2.72;;
38113;SDS011;23926;53.222;6.354;2022-10-16T09:55:51;11.85;;;2.30;;
38113;SDS011;23926;53.222;6.354;2022-10-16T09:58:20;17.83;;;2.45;;
38113;SDS011;23926;53.222;6.354;2022-10-16T10:00:51;12.05;;;2.63;;
38113;SDS011;23926;53.222;6.354;2022-10-16T10:11:44;15.40;;;3.23;;
38113;SDS011;23926;53.222;6.354;2022-10-16T10:19:37;15.23;;;2.75;;
38113;SDS011;23926;53.222;6.354;2022-10-16T10:36:34;15.35;;;2.60;;
38113;SDS011;23926;53.222;6.354;2022-10-16T10:38:45;17.95;;;3.83;;
38113;SDS011;23926;53.222;6.354;2022-10-16T10:41:34;14.57;;;2.80;;
38113;SDS011;23926;53.222;6.354;2022-10-16T10:44:26;13.43;;;2.33;;
38113;SDS011;23926;53.222;6.354;2022-10-16T11:00:55;10.43;;;2.50;;
38113;SDS011;23926;53.222;6.354;2022-10-16T11:11:34;9.02;;;1.85;;
38113;SDS011;23926;53.222;6.354;2022-10-16T11:14:12;13.57;;;2.90;;
38113;SDS011;23926;53.222;6.354;2022-10-16T11:16:58;11.35;;;2.13;;
38113;SDS011;23926;53.222;6.354;2022-10-16T11:19:41;14.98;;;2.60;;
38113;SDS011;23926;53.222;6.354;2022-10-16T11:22:16;10.60;;;2.40;;
38113;SDS011;23926;53.222;6.354;2022-10-16T11:25:14;14.32;;;2.35;;
38113;SDS011;23926;53.222;6.354;2022-10-16T11:27:58;15.00;;;2.30;;
38113;SDS011;23926;53.222;6.354;2022-10-16T11:36:25;15.95;;;2.55;;
38113;SDS011;23926;53.222;6.354;2022-10-16T11:39:08;17.33;;;3.55;;
38113;SDS011;23926;53.222;6.354;2022-10-16T11:47:43;14.45;;;2.65;;
38113;SDS011;23926;53.222;6.354;2022-10-16T11:50:17;14.32;;;2.38;;
38113;SDS011;23926;53.222;6.354;2022-10-16T11:55:17;10.20;;;2.60;;
38113;SDS011;23926;53.222;6.354;2022-10-16T11:57:59;14.63;;;2.42;;
38113;SDS011;23926;53.222;6.354;2022-10-16T12:03:22;7.35;;;2.10;;
38113;SDS011;23926;53.222;6.354;2022-10-16T12:06:33;9.43;;;2.03;;
38113;SDS011;23926;53.222;6.354;2022-10-16T12:08:55;12.85;;;2.38;;
38113;SDS011;23926;53.222;6.354;2022-10-16T12:17:04;12.00;;;2.45;;
38113;SDS011;23926;53.222;6.354;2022-10-16T12:19:56;16.15;;;2.50;;
38113;SDS011;23926;53.222;6.354;2022-10-16T12:22:24;13.77;;;2.70;;
38113;SDS011;23926;53.222;6.354;2022-10-16T12:24:54;15.07;;;2.60;;
38113;SDS011;23926;53.222;6.354;2022-10-16T12:27:29;8.60;;;2.22;;
38113;SDS011;23926;53.222;6.354;2022-10-16T12:30:00;14.10;;;2.47;;
38113;SDS011;23926;53.222;6.354;2022-10-16T12:32:32;23.00;;;3.13;;
38113;SDS011;23926;53.222;6.354;2022-10-16T12:34:59;11.30;;;2.47;;
38113;SDS011;23926;53.222;6.354;2022-10-16T12:37:28;10.70;;;2.45;;
38113;SDS011;23926;53.222;6.354;2022-10-16T12:39:58;11.93;;;2.42;;
38113;SDS011;23926;53.222;6.354;2022-10-16T12:44:53;8.77;;;2.53;;
38113;SDS011;23926;53.222;6.354;2022-10-16T12:49:57;12.10;;;3.28;;
38113;SDS011;23926;53.222;6.354;2022-10-16T12:52:44;12.85;;;3.17;;
38113;SDS011;23926;53.222;6.354;2022-10-16T12:55:15;13.57;;;2.83;;
38113;SDS011;23926;53.222;6.354;2022-10-16T13:00:41;14.00;;;2.47;;
38113;SDS011;23926;53.222;6.354;2022-10-16T13:05:54;10.50;;;2.00;;
38113;SDS011;23926;53.222;6.354;2022-10-16T13:09:14;14.07;;;2.50;;
38113;SDS011;23926;53.222;6.354;2022-10-16T13:11:47;12.35;;;2.42;;
38113;SDS011;23926;53.222;6.354;2022-10-16T13:17:07;12.02;;;2.83;;
38113;SDS011;23926;53.222;6.354;2022-10-16T13:20:03;12.05;;;1.95;;
38113;SDS011;23926;53.222;6.354;2022-10-16T13:22:39;13.65;;;2.38;;
38113;SDS011;23926;53.222;6.354;2022-10-16T13:27:47;11.45;;;2.08;;
38113;SDS011;23926;53.222;6.354;2022-10-16T13:30:42;9.50;;;2.05;;
38113;SDS011;23926;53.222;6.354;2022-10-16T13:35:35;13.32;;;2.83;;
38113;SDS011;23926;53.222;6.354;2022-10-16T13:38:05;7.72;;;2.15;;
38113;SDS011;23926;53.222;6.354;2022-10-16T13:40:36;13.55;;;2.40;;
38113;SDS011;23926;53.222;6.354;2022-10-16T13:43:12;11.52;;;2.33;;
38113;SDS011;23926;53.222;6.354;2022-10-16T13:45:38;14.35;;;2.30;;
38113;SDS011;23926;53.222;6.354;2022-10-16T13:48:08;12.40;;;2.17;;
38113;SDS011;23926;53.222;6.354;2022-10-16T13:50:37;12.25;;;2.33;;
38113;SDS011;23926;53.222;6.354;2022-10-16T13:53:06;7.32;;;2.08;;
38113;SDS011;23926;53.222;6.354;2022-10-16T13:55:37;12.18;;;2.40;;
38113;SDS011;23926;53.222;6.354;2022-10-16T13:58:10;11.55;;;2.45;;
38113;SDS011;23926;53.222;6.354;2022-10-16T14:00:38;12.98;;;2.53;;
38113;SDS011;23926;53.222;6.354;2022-10-16T14:03:05;10.18;;;2.05;;
38113;SDS011;23926;53.222;6.354;2022-10-16T14:05:40;12.98;;;2.22;;
38113;SDS011;23926;53.222;6.354;2022-10-16T14:08:12;13.77;;;2.00;;
38113;SDS011;23926;53.222;6.354;2022-10-16T14:10:37;17.38;;;2.70;;
38113;SDS011;23926;53.222;6.354;2022-10-16T14:13:04;9.50;;;1.98;;
38113;SDS011;23926;53.222;6.354;2022-10-16T14:15:31;11.65;;;2.40;;
38113;SDS011;23926;53.222;6.354;2022-10-16T14:17:59;11.27;;;2.65;;
38113;SDS011;23926;53.222;6.354;2022-10-16T14:20:26;12.23;;;2.42;;
38113;SDS011;23926;53.222;6.354;2022-10-16T14:23:00;15.50;;;2.88;;
38113;SDS011;23926;53.222;6.354;2022-10-16T14:25:43;13.30;;;2.03;;
38113;SDS011;23926;53.222;6.354;2022-10-16T14:30:35;12.18;;;2.88;;
38113;SDS011;23926;53.222;6.354;2022-10-16T14:33:02;12.23;;;2.28;;
38113;SDS011;23926;53.222;6.354;2022-10-16T14:35:34;14.15;;;2.33;;
38113;SDS011;23926;53.222;6.354;2022-10-16T14:38:01;13.25;;;2.20;;
38113;SDS011;23926;53.222;6.354;2022-10-16T14:40:32;8.80;;;2.53;;
38113;SDS011;23926;53.222;6.354;2022-10-16T14:43:03;10.15;;;2.30;;
38113;SDS011;23926;53.222;6.354;2022-10-16T14:45:30;15.98;;;2.50;;
38113;SDS011;23926;53.222;6.354;2022-10-16T14:48:03;10.18;;;2.45;;
38113;SDS011;23926;53.222;6.354;2022-10-16T14:50:39;9.02;;;2.13;;
38113;SDS011;23926;53.222;6.354;2022-10-16T14:53:08;12.15;;;2.55;;
38113;SDS011;23926;53.222;6.354;2022-10-16T14:55:36;13.40;;;3.25;;
38113;SDS011;23926;53.222;6.354;2022-10-16T14:58:02;13.40;;;2.33;;
38113;SDS011;23926;53.222;6.354;2022-10-16T15:00:28;14.98;;;2.28;;
38113;SDS011;23926;53.222;6.354;2022-10-16T15:02:53;13.77;;;2.90;;
38113;SDS011;23926;53.222;6.354;2022-10-16T15:05:19;14.25;;;2.53;;
38113;SDS011;23926;53.222;6.354;2022-10-16T15:07:51;9.40;;;2.40;;
38113;SDS011;23926;53.222;6.354;2022-10-16T15:10:18;8.38;;;2.15;;
38113;SDS011;23926;53.222;6.354;2022-10-16T15:12:46;14.18;;;3.00;;
38113;SDS011;23926;53.222;6.354;2022-10-16T15:15:32;9.52;;;2.00;;
38113;SDS011;23926;53.222;6.354;2022-10-16T15:17:59;12.02;;;3.33;;
38113;SDS011;23926;53.222;6.354;2022-10-16T15:20:29;19.17;;;2.97;;
38113;SDS011;23926;53.222;6.354;2022-10-16T15:22:59;7.20;;;1.65;;
38113;SDS011;23926;53.222;6.354;2022-10-16T15:25:34;6.13;;;1.88;;
38113;SDS011;23926;53.222;6.354;2022-10-16T15:28:07;14.75;;;2.42;;
38113;SDS011;23926;53.222;6.354;2022-10-16T15:30:33;13.75;;;3.25;;
38113;SDS011;23926;53.222;6.354;2022-10-16T15:32:59;13.38;;;2.60;;
38113;SDS011;23926;53.222;6.354;2022-10-16T15:35:25;9.48;;;2.13;;
38113;SDS011;23926;53.222;6.354;2022-10-16T15:37:51;12.57;;;2.33;;
38113;SDS011;23926;53.222;6.354;2022-10-16T15:40:17;9.10;;;2.50;;
38113;SDS011;23926;53.222;6.354;2022-10-16T15:42:43;9.63;;;1.92;;
38113;SDS011;23926;53.222;6.354;2022-10-16T15:45:09;8.13;;;2.35;;
38113;SDS011;23926;53.222;6.354;2022-10-16T15:47:35;8.88;;;2.20;;
38113;SDS011;23926;53.222;6.354;2022-10-16T15:50:00;11.18;;;2.47;;
38113;SDS011;23926;53.222;6.354;2022-10-16T15:52:26;14.75;;;2.60;;
38113;SDS011;23926;53.222;6.354;2022-10-16T15:54:53;11.52;;;2.35;;
38113;SDS011;23926;53.222;6.354;2022-10-16T15:57:19;12.27;;;2.35;;
38113;SDS011;23926;53.222;6.354;2022-10-16T15:59:44;14.60;;;2.78;;
38113;SDS011;23926;53.222;6.354;2022-10-16T16:02:09;12.30;;;2.80;;
38113;SDS011;23926;53.222;6.354;2022-10-16T16:04:35;11.93;;;2.90;;
38113;SDS011;23926;53.222;6.354;2022-10-16T16:07:01;10.45;;;1.80;;
38113;SDS011;23926;53.222;6.354;2022-10-16T16:09:28;10.65;;;1.98;;
38113;SDS011;23926;53.222;6.354;2022-10-16T16:11:54;11.05;;;2.20;;
38113;SDS011;23926;53.222;6.354;2022-10-16T16:14:19;12.65;;;2.28;;
38113;SDS011;23926;53.222;6.354;2022-10-16T16:16:45;9.82;;;2.35;;
38113;SDS011;23926;53.222;6.354;2022-10-16T16:19:10;10.80;;;2.00;;
38113;SDS011;23926;53.222;6.354;2022-10-16T16:21:36;8.00;;;1.95;;
38113;SDS011;23926;53.222;6.354;2022-10-16T16:24:01;11.63;;;2.28;;
38113;SDS011;23926;53.222;6.354;2022-10-16T16:26:32;8.80;;;2.03;;
38113;SDS011;23926;53.222;6.354;2022-10-16T16:29:01;11.68;;;2.78;;
38113;SDS011;23926;53.222;6.354;2022-10-16T16:31:29;13.02;;;2.33;;
38113;SDS011;23926;53.222;6.354;2022-10-16T16:33:55;11.18;;;2.75;;
38113;SDS011;23926;53.222;6.354;2022-10-16T16:36:22;12.05;;;2.60;;
38113;SDS011;23926;53.222;6.354;2022-10-16T16:38:48;15.38;;;2.95;;
38113;SDS011;23926;53.222;6.354;2022-10-16T16:41:15;9.30;;;2.45;;
38113;SDS011;23926;53.222;6.354;2022-10-16T16:43:42;14.80;;;2.65;;
38113;SDS011;23926;53.222;6.354;2022-10-16T16:46:08;14.98;;;3.20;;
38113;SDS011;23926;53.222;6.354;2022-10-16T16:48:34;14.10;;;3.42;;
38113;SDS011;23926;53.222;6.354;2022-10-16T16:51:18;11.38;;;2.72;;
38113;SDS011;23926;53.222;6.354;2022-10-16T16:53:48;12.88;;;2.63;;
38113;SDS011;23926;53.222;6.354;2022-10-16T16:56:14;13.98;;;2.30;;
38113;SDS011;23926;53.222;6.354;2022-10-16T16:58:40;12.57;;;2.50;;
38113;SDS011;23926;53.222;6.354;2022-10-16T17:01:06;10.38;;;2.45;;
38113;SDS011;23926;53.222;6.354;2022-10-16T17:03:34;12.15;;;2.30;;
38113;SDS011;23926;53.222;6.354;2022-10-16T17:06:01;13.25;;;2.25;;
38113;SDS011;23926;53.222;6.354;2022-10-16T17:08:28;13.40;;;2.80;;